sensor_id;sensor_type;location;lat;lon;timestamp;P1;durP1;ratioP1;P2;durP2;ratioP2
5965;SDS011;3009;43.224;27.976;2023-06-14T00:00:42;6.50;;;4.40;;
5965;SDS011;3009;43.224;27.976;2023-06-14T00:03:12;6.10;;;4.73;;
5965;SDS011;3009;43.224;27.976;2023-06-14T00:05:44;4.73;;;4.43;;
5965;SDS011;3009;43.224;27.976;2023-06-14T00:08:13;4.90;;;4.50;;
5965;SDS011;3009;43.224;27.976;2023-06-14T00:10:42;5.50;;;5.00;;
5965;SDS011;3009;43.224;27.976;2023-06-14T00:13:10;5.27;;;4.87;;
5965;SDS011;3009;43.224;27.976;2023-06-14T00:15:39;5.73;;;5.23;;
5965;SDS011;3009;43.224;27.976;2023-06-14T00:18:09;8.63;;;5.20;;
5965;SDS011;3009;43.224;27.976;2023-06-14T00:20:39;5.57;;;5.17;;
5965;SDS011;3009;43.224;27.976;2023-06-14T00:23:09;5.50;;;5.03;;
5965;SDS011;3009;43.224;27.976;2023-06-14T00:25:37;5.33;;;4.97;;
5965;SDS011;3009;43.224;27.976;2023-06-14T00:28:06;5.23;;;4.83;;
5965;SDS011;3009;43.224;27.976;2023-06-14T00:30:34;5.40;;;4.90;;
5965;SDS011;3009;43.224;27.976;2023-06-14T00:33:02;5.30;;;4.90;;
5965;SDS011;3009;43.224;27.976;2023-06-14T00:35:31;5.53;;;4.87;;
5965;SDS011;3009;43.224;27.976;2023-06-14T00:38:01;6.80;;;5.30;;
5965;SDS011;3009;43.224;27.976;2023-06-14T00:40:29;5.03;;;4.63;;
5965;SDS011;3009;43.224;27.976;2023-06-14T00:42:58;8.23;;;4.40;;
5965;SDS011;3009;43.224;27.976;2023-06-14T00:45:26;5.90;;;5.40;;
5965;SDS011;3009;43.224;27.976;2023-06-14T00:47:55;5.40;;;5.10;;
5965;SDS011;3009;43.224;27.976;2023-06-14T00:50:24;5.73;;;4.57;;
5965;SDS011;3009;43.224;27.976;2023-06-14T00:52:52;13.07;;;5.27;;
5965;SDS011;3009;43.224;27.976;2023-06-14T00:55:23;4.80;;;4.50;;
5965;SDS011;3009;43.224;27.976;2023-06-14T00:57:51;6.00;;;4.80;;
5965;SDS011;3009;43.224;27.976;2023-06-14T01:00:19;7.00;;;4.57;;
5965;SDS011;3009;43.224;27.976;2023-06-14T01:02:48;4.80;;;4.50;;
5965;SDS011;3009;43.224;27.976;2023-06-14T01:05:17;6.13;;;4.90;;
5965;SDS011;3009;43.224;27.976;2023-06-14T01:07:49;5.10;;;4.80;;
5965;SDS011;3009;43.224;27.976;2023-06-14T01:10:37;6.10;;;5.60;;
5965;SDS011;3009;43.224;27.976;2023-06-14T01:13:19;5.07;;;4.77;;
5965;SDS011;3009;43.224;27.976;2023-06-14T01:15:49;7.53;;;4.87;;
5965;SDS011;3009;43.224;27.976;2023-06-14T01:18:18;5.33;;;4.93;;
5965;SDS011;3009;43.224;27.976;2023-06-14T01:20:47;5.43;;;5.13;;
5965;SDS011;3009;43.224;27.976;2023-06-14T01:23:18;6.13;;;4.70;;
5965;SDS011;3009;43.224;27.976;2023-06-14T01:25:48;5.23;;;4.73;;
5965;SDS011;3009;43.224;27.976;2023-06-14T01:28:19;9.10;;;5.10;;
5965;SDS011;3009;43.224;27.976;2023-06-14T01:30:50;8.13;;;6.37;;
5965;SDS011;3009;43.224;27.976;2023-06-14T01:33:20;5.57;;;5.23;;
5965;SDS011;3009;43.224;27.976;2023-06-14T01:35:50;6.13;;;5.63;;
5965;SDS011;3009;43.224;27.976;2023-06-14T01:38:22;6.00;;;5.50;;
5965;SDS011;3009;43.224;27.976;2023-06-14T01:40:54;5.90;;;5.50;;
5965;SDS011;3009;43.224;27.976;2023-06-14T01:43:26;6.10;;;5.50;;
5965;SDS011;3009;43.224;27.976;2023-06-14T01:45:57;5.50;;;5.10;;
5965;SDS011;3009;43.224;27.976;2023-06-14T01:48:27;6.47;;;5.90;;
5965;SDS011;3009;43.224;27.976;2023-06-14T01:50:55;6.77;;;5.83;;
5965;SDS011;3009;43.224;27.976;2023-06-14T01:53:25;6.10;;;5.60;;
5965;SDS011;3009;43.224;27.976;2023-06-14T01:55:54;6.20;;;5.60;;
5965;SDS011;3009;43.224;27.976;2023-06-14T01:58:22;7.93;;;5.40;;
5965;SDS011;3009;43.224;27.976;2023-06-14T02:00:52;6.50;;;5.93;;
5965;SDS011;3009;43.224;27.976;2023-06-14T02:03:23;6.83;;;6.03;;
5965;SDS011;3009;43.224;27.976;2023-06-14T02:05:51;9.43;;;5.53;;
5965;SDS011;3009;43.224;27.976;2023-06-14T02:08:21;5.80;;;5.40;;
5965;SDS011;3009;43.224;27.976;2023-06-14T02:10:51;5.90;;;5.50;;
5965;SDS011;3009;43.224;27.976;2023-06-14T02:13:20;5.90;;;5.50;;
5965;SDS011;3009;43.224;27.976;2023-06-14T02:15:48;6.27;;;5.70;;
5965;SDS011;3009;43.224;27.976;2023-06-14T02:18:22;6.40;;;5.90;;
5965;SDS011;3009;43.224;27.976;2023-06-14T02:20:51;6.40;;;5.80;;
5965;SDS011;3009;43.224;27.976;2023-06-14T02:23:19;6.40;;;5.80;;
5965;SDS011;3009;43.224;27.976;2023-06-14T02:25:48;6.70;;;6.10;;
5965;SDS011;3009;43.224;27.976;2023-06-14T02:28:18;8.23;;;5.60;;
5965;SDS011;3009;43.224;27.976;2023-06-14T02:30:47;6.67;;;6.03;;
5965;SDS011;3009;43.224;27.976;2023-06-14T02:33:15;6.10;;;5.63;;
5965;SDS011;3009;43.224;27.976;2023-06-14T02:35:44;6.27;;;5.67;;
5965;SDS011;3009;43.224;27.976;2023-06-14T02:38:13;7.27;;;6.57;;
5965;SDS011;3009;43.224;27.976;2023-06-14T02:40:41;6.33;;;5.83;;
5965;SDS011;3009;43.224;27.976;2023-06-14T02:43:10;7.13;;;6.50;;
5965;SDS011;3009;43.224;27.976;2023-06-14T02:45:39;6.37;;;5.87;;
5965;SDS011;3009;43.224;27.976;2023-06-14T02:48:08;6.80;;;5.77;;
5965;SDS011;3009;43.224;27.976;2023-06-14T02:50:37;7.53;;;5.90;;
5965;SDS011;3009;43.224;27.976;2023-06-14T02:53:05;7.23;;;6.53;;
5965;SDS011;3009;43.224;27.976;2023-06-14T02:55:33;6.60;;;6.00;;
5965;SDS011;3009;43.224;27.976;2023-06-14T02:58:06;6.20;;;5.70;;
5965;SDS011;3009;43.224;27.976;2023-06-14T03:00:35;7.93;;;6.60;;
5965;SDS011;3009;43.224;27.976;2023-06-14T03:03:06;6.90;;;6.30;;
5965;SDS011;3009;43.224;27.976;2023-06-14T03:05:41;6.60;;;6.10;;
5965;SDS011;3009;43.224;27.976;2023-06-14T03:08:12;7.33;;;6.73;;
5965;SDS011;3009;43.224;27.976;2023-06-14T03:10:43;6.93;;;6.30;;
5965;SDS011;3009;43.224;27.976;2023-06-14T03:13:11;7.10;;;5.90;;
5965;SDS011;3009;43.224;27.976;2023-06-14T03:15:40;6.50;;;5.43;;
5965;SDS011;3009;43.224;27.976;2023-06-14T03:18:13;6.83;;;6.13;;
5965;SDS011;3009;43.224;27.976;2023-06-14T03:20:41;6.40;;;5.23;;
5965;SDS011;3009;43.224;27.976;2023-06-14T03:23:12;6.30;;;5.80;;
5965;SDS011;3009;43.224;27.976;2023-06-14T03:25:40;8.33;;;5.70;;
5965;SDS011;3009;43.224;27.976;2023-06-14T03:28:08;5.93;;;5.40;;
5965;SDS011;3009;43.224;27.976;2023-06-14T03:30:37;7.83;;;6.23;;
5965;SDS011;3009;43.224;27.976;2023-06-14T03:33:05;7.70;;;6.53;;
5965;SDS011;3009;43.224;27.976;2023-06-14T03:35:36;6.23;;;5.53;;
5965;SDS011;3009;43.224;27.976;2023-06-14T03:38:05;6.90;;;6.30;;
5965;SDS011;3009;43.224;27.976;2023-06-14T03:40:33;5.67;;;5.27;;
5965;SDS011;3009;43.224;27.976;2023-06-14T03:43:01;5.43;;;5.10;;
5965;SDS011;3009;43.224;27.976;2023-06-14T03:45:30;8.23;;;5.70;;
5965;SDS011;3009;43.224;27.976;2023-06-14T03:47:58;6.93;;;5.70;;
5965;SDS011;3009;43.224;27.976;2023-06-14T03:50:27;5.77;;;5.23;;
5965;SDS011;3009;43.224;27.976;2023-06-14T03:52:57;6.20;;;5.00;;
5965;SDS011;3009;43.224;27.976;2023-06-14T03:55:25;6.10;;;5.60;;
5965;SDS011;3009;43.224;27.976;2023-06-14T03:57:57;6.03;;;5.43;;
5965;SDS011;3009;43.224;27.976;2023-06-14T04:00:25;7.23;;;5.77;;
5965;SDS011;3009;43.224;27.976;2023-06-14T04:02:53;6.33;;;5.83;;
5965;SDS011;3009;43.224;27.976;2023-06-14T04:05:22;22.00;;;5.60;;
5965;SDS011;3009;43.224;27.976;2023-06-14T04:07:53;5.47;;;5.03;;
5965;SDS011;3009;43.224;27.976;2023-06-14T04:10:24;6.47;;;5.80;;
5965;SDS011;3009;43.224;27.976;2023-06-14T04:12:52;6.00;;;5.50;;
5965;SDS011;3009;43.224;27.976;2023-06-14T04:15:20;12.20;;;5.37;;
5965;SDS011;3009;43.224;27.976;2023-06-14T04:17:49;6.30;;;5.20;;
5965;SDS011;3009;43.224;27.976;2023-06-14T04:20:18;7.03;;;5.33;;
5965;SDS011;3009;43.224;27.976;2023-06-14T04:22:46;7.47;;;5.60;;
5965;SDS011;3009;43.224;27.976;2023-06-14T04:25:15;8.50;;;6.03;;
5965;SDS011;3009;43.224;27.976;2023-06-14T04:27:50;6.20;;;5.70;;
5965;SDS011;3009;43.224;27.976;2023-06-14T04:30:20;6.13;;;5.53;;
5965;SDS011;3009;43.224;27.976;2023-06-14T04:32:53;7.40;;;5.60;;
5965;SDS011;3009;43.224;27.976;2023-06-14T04:35:22;14.80;;;5.80;;
5965;SDS011;3009;43.224;27.976;2023-06-14T04:37:52;9.63;;;4.97;;
5965;SDS011;3009;43.224;27.976;2023-06-14T04:40:22;6.67;;;5.83;;
5965;SDS011;3009;43.224;27.976;2023-06-14T04:42:52;6.57;;;5.03;;
5965;SDS011;3009;43.224;27.976;2023-06-14T04:45:21;10.77;;;5.40;;
5965;SDS011;3009;43.224;27.976;2023-06-14T04:47:50;6.13;;;5.20;;
5965;SDS011;3009;43.224;27.976;2023-06-14T04:50:24;6.40;;;5.77;;
5965;SDS011;3009;43.224;27.976;2023-06-14T04:52:52;5.70;;;5.10;;
5965;SDS011;3009;43.224;27.976;2023-06-14T04:55:21;9.77;;;5.43;;
5965;SDS011;3009;43.224;27.976;2023-06-14T04:57:50;11.93;;;5.60;;
5965;SDS011;3009;43.224;27.976;2023-06-14T05:00:20;6.57;;;6.03;;
5965;SDS011;3009;43.224;27.976;2023-06-14T05:02:49;5.87;;;5.47;;
5965;SDS011;3009;43.224;27.976;2023-06-14T05:05:21;11.10;;;6.50;;
5965;SDS011;3009;43.224;27.976;2023-06-14T05:07:49;6.77;;;6.17;;
5965;SDS011;3009;43.224;27.976;2023-06-14T05:10:17;8.83;;;5.63;;
5965;SDS011;3009;43.224;27.976;2023-06-14T05:12:46;7.50;;;5.90;;
5965;SDS011;3009;43.224;27.976;2023-06-14T05:15:16;7.83;;;6.30;;
5965;SDS011;3009;43.224;27.976;2023-06-14T05:17:45;6.23;;;5.73;;
5965;SDS011;3009;43.224;27.976;2023-06-14T05:20:19;5.87;;;5.43;;
5965;SDS011;3009;43.224;27.976;2023-06-14T05:22:49;6.07;;;5.47;;
5965;SDS011;3009;43.224;27.976;2023-06-14T05:25:18;5.50;;;5.00;;
5965;SDS011;3009;43.224;27.976;2023-06-14T05:27:47;7.10;;;6.40;;
5965;SDS011;3009;43.224;27.976;2023-06-14T05:30:17;12.03;;;5.60;;
5965;SDS011;3009;43.224;27.976;2023-06-14T05:32:46;6.07;;;5.57;;
5965;SDS011;3009;43.224;27.976;2023-06-14T05:35:14;6.40;;;5.90;;
5965;SDS011;3009;43.224;27.976;2023-06-14T05:37:43;6.00;;;5.50;;
5965;SDS011;3009;43.224;27.976;2023-06-14T05:40:12;5.90;;;5.27;;
5965;SDS011;3009;43.224;27.976;2023-06-14T05:42:40;32.30;;;17.83;;
5965;SDS011;3009;43.224;27.976;2023-06-14T05:45:09;6.40;;;5.90;;
5965;SDS011;3009;43.224;27.976;2023-06-14T05:47:39;7.43;;;6.40;;
5965;SDS011;3009;43.224;27.976;2023-06-14T05:50:07;6.20;;;5.60;;
5965;SDS011;3009;43.224;27.976;2023-06-14T05:52:36;5.80;;;5.40;;
5965;SDS011;3009;43.224;27.976;2023-06-14T05:55:05;6.53;;;5.83;;
5965;SDS011;3009;43.224;27.976;2023-06-14T05:57:33;6.07;;;5.63;;
5965;SDS011;3009;43.224;27.976;2023-06-14T06:00:02;5.60;;;5.20;;
5965;SDS011;3009;43.224;27.976;2023-06-14T06:02:38;5.70;;;5.30;;
5965;SDS011;3009;43.224;27.976;2023-06-14T06:05:07;7.27;;;4.70;;
5965;SDS011;3009;43.224;27.976;2023-06-14T06:07:36;5.83;;;5.33;;
5965;SDS011;3009;43.224;27.976;2023-06-14T06:10:06;5.73;;;4.70;;
5965;SDS011;3009;43.224;27.976;2023-06-14T06:12:35;8.93;;;4.40;;
5965;SDS011;3009;43.224;27.976;2023-06-14T06:15:03;5.10;;;4.80;;
5965;SDS011;3009;43.224;27.976;2023-06-14T06:17:32;4.80;;;4.40;;
5965;SDS011;3009;43.224;27.976;2023-06-14T06:20:22;4.77;;;4.47;;
5965;SDS011;3009;43.224;27.976;2023-06-14T06:22:55;5.00;;;4.60;;
5965;SDS011;3009;43.224;27.976;2023-06-14T06:25:24;4.73;;;4.33;;
5965;SDS011;3009;43.224;27.976;2023-06-14T06:27:54;5.10;;;4.80;;
5965;SDS011;3009;43.224;27.976;2023-06-14T06:30:23;5.63;;;4.50;;
5965;SDS011;3009;43.224;27.976;2023-06-14T06:32:52;6.23;;;4.60;;
5965;SDS011;3009;43.224;27.976;2023-06-14T06:35:24;5.13;;;4.83;;
5965;SDS011;3009;43.224;27.976;2023-06-14T06:37:52;5.93;;;4.60;;
5965;SDS011;3009;43.224;27.976;2023-06-14T06:40:20;5.00;;;4.70;;
5965;SDS011;3009;43.224;27.976;2023-06-14T06:42:49;5.13;;;4.57;;
5965;SDS011;3009;43.224;27.976;2023-06-14T06:45:17;5.10;;;4.70;;
5965;SDS011;3009;43.224;27.976;2023-06-14T06:47:47;4.30;;;4.10;;
5965;SDS011;3009;43.224;27.976;2023-06-14T06:50:17;5.67;;;5.27;;
5965;SDS011;3009;43.224;27.976;2023-06-14T06:52:48;6.63;;;4.60;;
5965;SDS011;3009;43.224;27.976;2023-06-14T06:55:16;4.50;;;4.10;;
5965;SDS011;3009;43.224;27.976;2023-06-14T06:57:45;5.93;;;3.80;;
5965;SDS011;3009;43.224;27.976;2023-06-14T07:00:14;6.37;;;4.47;;
5965;SDS011;3009;43.224;27.976;2023-06-14T07:02:44;7.03;;;4.23;;
5965;SDS011;3009;43.224;27.976;2023-06-14T07:05:13;4.70;;;4.40;;
5965;SDS011;3009;43.224;27.976;2023-06-14T07:07:42;5.37;;;4.87;;
5965;SDS011;3009;43.224;27.976;2023-06-14T07:10:11;5.13;;;4.93;;
5965;SDS011;3009;43.224;27.976;2023-06-14T07:12:40;5.17;;;4.67;;
5965;SDS011;3009;43.224;27.976;2023-06-14T07:15:09;5.60;;;4.50;;
5965;SDS011;3009;43.224;27.976;2023-06-14T07:17:39;5.77;;;4.93;;
5965;SDS011;3009;43.224;27.976;2023-06-14T07:20:08;4.77;;;4.37;;
5965;SDS011;3009;43.224;27.976;2023-06-14T07:22:40;4.60;;;4.40;;
5965;SDS011;3009;43.224;27.976;2023-06-14T07:25:09;5.17;;;4.97;;
5965;SDS011;3009;43.224;27.976;2023-06-14T07:27:43;7.03;;;5.53;;
5965;SDS011;3009;43.224;27.976;2023-06-14T07:30:14;4.70;;;4.40;;
5965;SDS011;3009;43.224;27.976;2023-06-14T07:32:43;5.40;;;4.90;;
5965;SDS011;3009;43.224;27.976;2023-06-14T07:35:11;6.20;;;5.03;;
5965;SDS011;3009;43.224;27.976;2023-06-14T07:37:40;5.97;;;5.47;;
5965;SDS011;3009;43.224;27.976;2023-06-14T07:40:09;5.50;;;5.10;;
5965;SDS011;3009;43.224;27.976;2023-06-14T07:42:38;5.47;;;5.10;;
5965;SDS011;3009;43.224;27.976;2023-06-14T07:45:08;5.47;;;4.97;;
5965;SDS011;3009;43.224;27.976;2023-06-14T07:47:37;6.23;;;4.93;;
5965;SDS011;3009;43.224;27.976;2023-06-14T07:50:05;6.30;;;4.77;;
5965;SDS011;3009;43.224;27.976;2023-06-14T07:52:34;5.87;;;5.40;;
5965;SDS011;3009;43.224;27.976;2023-06-14T07:55:03;5.00;;;4.70;;
5965;SDS011;3009;43.224;27.976;2023-06-14T07:57:32;13.67;;;4.53;;
5965;SDS011;3009;43.224;27.976;2023-06-14T08:00:00;4.40;;;4.20;;
5965;SDS011;3009;43.224;27.976;2023-06-14T08:02:30;4.80;;;4.60;;
5965;SDS011;3009;43.224;27.976;2023-06-14T08:04:59;4.70;;;4.50;;
5965;SDS011;3009;43.224;27.976;2023-06-14T08:07:27;5.63;;;5.13;;
5965;SDS011;3009;43.224;27.976;2023-06-14T08:09:57;17.80;;;6.80;;
5965;SDS011;3009;43.224;27.976;2023-06-14T08:12:31;14.43;;;6.60;;
5965;SDS011;3009;43.224;27.976;2023-06-14T08:15:00;6.73;;;6.23;;
5965;SDS011;3009;43.224;27.976;2023-06-14T08:17:41;5.73;;;5.27;;
5965;SDS011;3009;43.224;27.976;2023-06-14T08:20:10;6.20;;;5.80;;
5965;SDS011;3009;43.224;27.976;2023-06-14T08:22:41;5.93;;;5.43;;
5965;SDS011;3009;43.224;27.976;2023-06-14T08:25:09;6.10;;;5.60;;
5965;SDS011;3009;43.224;27.976;2023-06-14T08:27:39;5.40;;;5.10;;
5965;SDS011;3009;43.224;27.976;2023-06-14T08:30:08;10.57;;;5.70;;
5965;SDS011;3009;43.224;27.976;2023-06-14T08:32:37;5.33;;;4.83;;
5965;SDS011;3009;43.224;27.976;2023-06-14T08:35:07;5.87;;;5.47;;
5965;SDS011;3009;43.224;27.976;2023-06-14T08:37:38;5.60;;;5.20;;
5965;SDS011;3009;43.224;27.976;2023-06-14T08:40:09;5.47;;;5.13;;
5965;SDS011;3009;43.224;27.976;2023-06-14T08:42:47;5.97;;;5.57;;
5965;SDS011;3009;43.224;27.976;2023-06-14T08:45:18;6.90;;;5.23;;
5965;SDS011;3009;43.224;27.976;2023-06-14T08:47:51;5.70;;;5.20;;
5965;SDS011;3009;43.224;27.976;2023-06-14T08:50:27;7.70;;;5.30;;
5965;SDS011;3009;43.224;27.976;2023-06-14T08:52:58;5.00;;;4.70;;
5965;SDS011;3009;43.224;27.976;2023-06-14T08:55:29;4.80;;;4.50;;
5965;SDS011;3009;43.224;27.976;2023-06-14T08:58:02;7.63;;;5.23;;
5965;SDS011;3009;43.224;27.976;2023-06-14T09:00:31;5.30;;;4.90;;
5965;SDS011;3009;43.224;27.976;2023-06-14T09:03:01;8.00;;;4.50;;
5965;SDS011;3009;43.224;27.976;2023-06-14T09:05:31;6.23;;;5.63;;
5965;SDS011;3009;43.224;27.976;2023-06-14T09:08:00;5.53;;;5.13;;
5965;SDS011;3009;43.224;27.976;2023-06-14T09:10:32;5.93;;;5.37;;
5965;SDS011;3009;43.224;27.976;2023-06-14T09:13:01;6.50;;;5.90;;
5965;SDS011;3009;43.224;27.976;2023-06-14T09:15:30;7.07;;;5.47;;
5965;SDS011;3009;43.224;27.976;2023-06-14T09:18:00;6.73;;;5.20;;
5965;SDS011;3009;43.224;27.976;2023-06-14T09:20:30;8.43;;;6.30;;
5965;SDS011;3009;43.224;27.976;2023-06-14T09:23:00;8.03;;;5.03;;
5965;SDS011;3009;43.224;27.976;2023-06-14T09:25:32;5.70;;;5.20;;
5965;SDS011;3009;43.224;27.976;2023-06-14T09:28:08;5.43;;;5.13;;
5965;SDS011;3009;43.224;27.976;2023-06-14T09:30:37;6.40;;;5.47;;
5965;SDS011;3009;43.224;27.976;2023-06-14T09:33:06;18.67;;;15.10;;
5965;SDS011;3009;43.224;27.976;2023-06-14T09:35:36;8.63;;;7.77;;
5965;SDS011;3009;43.224;27.976;2023-06-14T09:38:06;5.77;;;5.40;;
5965;SDS011;3009;43.224;27.976;2023-06-14T09:40:35;5.67;;;5.27;;
5965;SDS011;3009;43.224;27.976;2023-06-14T09:43:05;5.30;;;5.00;;
5965;SDS011;3009;43.224;27.976;2023-06-14T09:45:37;5.17;;;4.87;;
5965;SDS011;3009;43.224;27.976;2023-06-14T09:48:07;5.27;;;4.87;;
5965;SDS011;3009;43.224;27.976;2023-06-14T09:50:38;6.00;;;4.70;;
5965;SDS011;3009;43.224;27.976;2023-06-14T09:53:07;5.23;;;4.83;;
5965;SDS011;3009;43.224;27.976;2023-06-14T09:55:40;5.53;;;5.03;;
5965;SDS011;3009;43.224;27.976;2023-06-14T09:58:10;5.80;;;5.50;;
5965;SDS011;3009;43.224;27.976;2023-06-14T10:00:40;5.87;;;5.47;;
5965;SDS011;3009;43.224;27.976;2023-06-14T10:03:11;7.10;;;4.97;;
5965;SDS011;3009;43.224;27.976;2023-06-14T10:05:43;5.30;;;5.00;;
5965;SDS011;3009;43.224;27.976;2023-06-14T10:08:15;6.00;;;5.53;;
5965;SDS011;3009;43.224;27.976;2023-06-14T10:10:45;5.83;;;5.17;;
5965;SDS011;3009;43.224;27.976;2023-06-14T10:13:14;5.87;;;5.47;;
5965;SDS011;3009;43.224;27.976;2023-06-14T10:15:48;5.60;;;5.20;;
5965;SDS011;3009;43.224;27.976;2023-06-14T10:18:24;6.77;;;5.70;;
5965;SDS011;3009;43.224;27.976;2023-06-14T10:21:04;6.30;;;5.80;;
5965;SDS011;3009;43.224;27.976;2023-06-14T10:23:44;6.40;;;5.90;;
5965;SDS011;3009;43.224;27.976;2023-06-14T10:26:19;5.60;;;5.20;;
5965;SDS011;3009;43.224;27.976;2023-06-14T10:28:58;5.90;;;5.43;;
5965;SDS011;3009;43.224;27.976;2023-06-14T10:31:41;6.20;;;5.80;;
5965;SDS011;3009;43.224;27.976;2023-06-14T10:34:10;8.40;;;5.43;;
5965;SDS011;3009;43.224;27.976;2023-06-14T10:36:41;6.00;;;5.60;;
5965;SDS011;3009;43.224;27.976;2023-06-14T10:39:14;5.43;;;5.03;;
5965;SDS011;3009;43.224;27.976;2023-06-14T10:41:50;5.17;;;4.77;;
5965;SDS011;3009;43.224;27.976;2023-06-14T10:44:38;6.17;;;5.27;;
5965;SDS011;3009;43.224;27.976;2023-06-14T10:47:20;6.17;;;5.30;;
5965;SDS011;3009;43.224;27.976;2023-06-14T10:49:53;6.00;;;5.50;;
5965;SDS011;3009;43.224;27.976;2023-06-14T10:52:24;6.67;;;5.37;;
5965;SDS011;3009;43.224;27.976;2023-06-14T10:54:56;7.50;;;5.37;;
5965;SDS011;3009;43.224;27.976;2023-06-14T10:57:32;6.03;;;5.30;;
5965;SDS011;3009;43.224;27.976;2023-06-14T11:00:05;5.70;;;5.20;;
5965;SDS011;3009;43.224;27.976;2023-06-14T11:02:46;5.50;;;5.10;;
5965;SDS011;3009;43.224;27.976;2023-06-14T11:05:50;5.27;;;4.87;;
5965;SDS011;3009;43.224;27.976;2023-06-14T11:11:33;6.03;;;4.57;;
5965;SDS011;3009;43.224;27.976;2023-06-14T11:14:05;6.07;;;5.50;;
5965;SDS011;3009;43.224;27.976;2023-06-14T11:16:34;5.30;;;5.00;;
5965;SDS011;3009;43.224;27.976;2023-06-14T11:19:02;4.87;;;4.50;;
5965;SDS011;3009;43.224;27.976;2023-06-14T11:21:31;5.73;;;5.30;;
5965;SDS011;3009;43.224;27.976;2023-06-14T11:24:02;14.20;;;8.43;;
5965;SDS011;3009;43.224;27.976;2023-06-14T11:26:31;12.50;;;8.83;;
5965;SDS011;3009;43.224;27.976;2023-06-14T11:29:01;24.90;;;13.70;;
5965;SDS011;3009;43.224;27.976;2023-06-14T11:31:30;6.57;;;5.90;;
5965;SDS011;3009;43.224;27.976;2023-06-14T11:33:59;6.23;;;5.00;;
5965;SDS011;3009;43.224;27.976;2023-06-14T11:36:29;5.73;;;4.57;;
5965;SDS011;3009;43.224;27.976;2023-06-14T11:38:59;9.00;;;5.67;;
5965;SDS011;3009;43.224;27.976;2023-06-14T11:41:40;7.10;;;6.40;;
5965;SDS011;3009;43.224;27.976;2023-06-14T11:44:10;6.67;;;6.07;;
5965;SDS011;3009;43.224;27.976;2023-06-14T11:46:39;5.83;;;5.33;;
5965;SDS011;3009;43.224;27.976;2023-06-14T11:49:08;5.00;;;4.70;;
5965;SDS011;3009;43.224;27.976;2023-06-14T11:51:37;6.93;;;6.37;;
5965;SDS011;3009;43.224;27.976;2023-06-14T11:54:06;6.10;;;5.80;;
5965;SDS011;3009;43.224;27.976;2023-06-14T11:56:36;6.20;;;5.70;;
5965;SDS011;3009;43.224;27.976;2023-06-14T11:59:06;6.10;;;5.50;;
5965;SDS011;3009;43.224;27.976;2023-06-14T12:01:37;7.67;;;6.90;;
5965;SDS011;3009;43.224;27.976;2023-06-14T12:04:08;9.90;;;6.73;;
5965;SDS011;3009;43.224;27.976;2023-06-14T12:06:37;7.57;;;6.87;;
5965;SDS011;3009;43.224;27.976;2023-06-14T12:09:06;10.60;;;7.20;;
5965;SDS011;3009;43.224;27.976;2023-06-14T12:11:41;7.37;;;6.83;;
5965;SDS011;3009;43.224;27.976;2023-06-14T12:14:10;7.97;;;7.27;;
5965;SDS011;3009;43.224;27.976;2023-06-14T12:16:38;9.07;;;8.00;;
5965;SDS011;3009;43.224;27.976;2023-06-14T12:19:09;8.73;;;7.83;;
5965;SDS011;3009;43.224;27.976;2023-06-14T12:21:40;8.83;;;8.03;;
5965;SDS011;3009;43.224;27.976;2023-06-14T12:24:09;7.40;;;6.80;;
5965;SDS011;3009;43.224;27.976;2023-06-14T12:26:40;8.23;;;7.60;;
5965;SDS011;3009;43.224;27.976;2023-06-14T12:29:10;10.37;;;7.27;;
5965;SDS011;3009;43.224;27.976;2023-06-14T12:31:40;11.10;;;7.87;;
5965;SDS011;3009;43.224;27.976;2023-06-14T12:34:09;9.90;;;9.10;;
5965;SDS011;3009;43.224;27.976;2023-06-14T12:36:38;9.37;;;7.20;;
5965;SDS011;3009;43.224;27.976;2023-06-14T12:39:11;9.60;;;8.07;;
5965;SDS011;3009;43.224;27.976;2023-06-14T12:41:41;15.53;;;8.67;;
5965;SDS011;3009;43.224;27.976;2023-06-14T12:44:10;9.80;;;8.93;;
5965;SDS011;3009;43.224;27.976;2023-06-14T12:46:39;8.93;;;8.13;;
5965;SDS011;3009;43.224;27.976;2023-06-14T12:49:08;10.03;;;7.90;;
5965;SDS011;3009;43.224;27.976;2023-06-14T12:51:38;8.63;;;7.83;;
5965;SDS011;3009;43.224;27.976;2023-06-14T12:54:07;10.10;;;8.63;;
5965;SDS011;3009;43.224;27.976;2023-06-14T12:56:35;9.80;;;9.00;;
5965;SDS011;3009;43.224;27.976;2023-06-14T12:59:06;11.70;;;8.57;;
5965;SDS011;3009;43.224;27.976;2023-06-14T13:01:34;8.80;;;8.00;;
5965;SDS011;3009;43.224;27.976;2023-06-14T13:04:03;9.23;;;8.30;;
5965;SDS011;3009;43.224;27.976;2023-06-14T13:06:31;8.10;;;7.40;;
5965;SDS011;3009;43.224;27.976;2023-06-14T13:09:00;10.80;;;8.10;;
5965;SDS011;3009;43.224;27.976;2023-06-14T13:11:30;10.20;;;8.43;;
5965;SDS011;3009;43.224;27.976;2023-06-14T13:13:58;9.30;;;8.47;;
5965;SDS011;3009;43.224;27.976;2023-06-14T13:16:44;18.30;;;11.87;;
5965;SDS011;3009;43.224;27.976;2023-06-14T13:19:12;10.20;;;9.30;;
5965;SDS011;3009;43.224;27.976;2023-06-14T13:21:41;9.43;;;8.53;;
5965;SDS011;3009;43.224;27.976;2023-06-14T13:24:09;11.23;;;8.50;;
5965;SDS011;3009;43.224;27.976;2023-06-14T13:26:38;10.83;;;9.77;;
5965;SDS011;3009;43.224;27.976;2023-06-14T13:29:06;10.00;;;8.50;;
5965;SDS011;3009;43.224;27.976;2023-06-14T13:31:35;9.67;;;8.83;;
5965;SDS011;3009;43.224;27.976;2023-06-14T13:34:04;14.03;;;12.53;;
5965;SDS011;3009;43.224;27.976;2023-06-14T13:36:33;13.90;;;12.17;;
5965;SDS011;3009;43.224;27.976;2023-06-14T13:39:02;16.83;;;11.40;;
5965;SDS011;3009;43.224;27.976;2023-06-14T13:41:30;10.83;;;9.93;;
5965;SDS011;3009;43.224;27.976;2023-06-14T13:44:01;9.33;;;8.63;;
5965;SDS011;3009;43.224;27.976;2023-06-14T13:46:31;13.20;;;8.77;;
5965;SDS011;3009;43.224;27.976;2023-06-14T13:48:59;9.30;;;8.40;;
5965;SDS011;3009;43.224;27.976;2023-06-14T13:51:30;11.83;;;9.90;;
5965;SDS011;3009;43.224;27.976;2023-06-14T13:53:58;10.33;;;8.77;;
5965;SDS011;3009;43.224;27.976;2023-06-14T13:56:27;12.63;;;8.70;;
5965;SDS011;3009;43.224;27.976;2023-06-14T13:58:56;11.70;;;9.70;;
5965;SDS011;3009;43.224;27.976;2023-06-14T14:01:24;10.17;;;9.20;;
5965;SDS011;3009;43.224;27.976;2023-06-14T14:03:57;14.80;;;9.50;;
5965;SDS011;3009;43.224;27.976;2023-06-14T14:06:27;9.60;;;8.70;;
5965;SDS011;3009;43.224;27.976;2023-06-14T14:08:57;9.23;;;8.37;;
5965;SDS011;3009;43.224;27.976;2023-06-14T14:11:26;11.43;;;9.63;;
5965;SDS011;3009;43.224;27.976;2023-06-14T14:13:59;13.63;;;8.30;;
5965;SDS011;3009;43.224;27.976;2023-06-14T14:16:28;9.93;;;8.40;;
5965;SDS011;3009;43.224;27.976;2023-06-14T14:18:58;13.70;;;8.60;;
5965;SDS011;3009;43.224;27.976;2023-06-14T14:21:26;11.33;;;10.30;;
5965;SDS011;3009;43.224;27.976;2023-06-14T14:23:55;12.77;;;9.57;;
5965;SDS011;3009;43.224;27.976;2023-06-14T14:26:25;12.90;;;9.40;;
5965;SDS011;3009;43.224;27.976;2023-06-14T14:28:55;10.23;;;9.33;;
5965;SDS011;3009;43.224;27.976;2023-06-14T14:31:23;16.23;;;10.17;;
5965;SDS011;3009;43.224;27.976;2023-06-14T14:33:52;10.77;;;9.87;;
5965;SDS011;3009;43.224;27.976;2023-06-14T14:36:20;12.83;;;10.53;;
5965;SDS011;3009;43.224;27.976;2023-06-14T14:38:49;10.53;;;9.63;;
5965;SDS011;3009;43.224;27.976;2023-06-14T14:41:19;11.27;;;10.20;;
5965;SDS011;3009;43.224;27.976;2023-06-14T14:43:48;11.17;;;10.03;;
5965;SDS011;3009;43.224;27.976;2023-06-14T14:46:16;12.70;;;10.10;;
5965;SDS011;3009;43.224;27.976;2023-06-14T14:48:45;10.73;;;9.80;;
5965;SDS011;3009;43.224;27.976;2023-06-14T14:51:13;11.10;;;10.10;;
5965;SDS011;3009;43.224;27.976;2023-06-14T14:53:41;11.60;;;10.50;;
5965;SDS011;3009;43.224;27.976;2023-06-14T14:56:10;11.33;;;10.33;;
5965;SDS011;3009;43.224;27.976;2023-06-14T14:58:40;11.30;;;10.10;;
5965;SDS011;3009;43.224;27.976;2023-06-14T15:01:08;12.50;;;11.30;;
5965;SDS011;3009;43.224;27.976;2023-06-14T15:03:38;11.53;;;10.27;;
5965;SDS011;3009;43.224;27.976;2023-06-14T15:06:25;12.20;;;11.10;;
5965;SDS011;3009;43.224;27.976;2023-06-14T15:08:53;11.57;;;10.50;;
5965;SDS011;3009;43.224;27.976;2023-06-14T15:11:21;12.47;;;10.77;;
5965;SDS011;3009;43.224;27.976;2023-06-14T15:13:51;14.30;;;11.83;;
5965;SDS011;3009;43.224;27.976;2023-06-14T15:16:19;16.43;;;11.50;;
5965;SDS011;3009;43.224;27.976;2023-06-14T15:18:48;13.40;;;12.10;;